Time;durP1;ratioP1;P1;durP2;ratioP2;P2;SDS_P1;SDS_P2;PMS_P1;PMS_P2;Temp;Humidity;BMP_temperature;BMP_pressure;BME280_temperature;BME280_humidity;BME280_pressure;Samples;Min_cycle;Max_cycle;Signal;HPM_P1;HPM_P2
2022/06/15 00:01:17;;;;;;;14.52;8.70;;;;;;;14.46;89.39;100793.94;8387812;28;20036;-63
2022/06/15 00:05:17;;;;;;;17.98;8.70;;;;;;;14.64;88.13;100789.28;8384868;28;20052;-63
2022/06/15 00:09:18;;;;;;;23.65;8.43;;;;;;;14.66;88.42;100794.56;8382105;28;20528;-63
2022/06/15 00:13:19;;;;;;;18.25;9.48;;;;;;;14.50;88.64;100789.88;8375480;28;20051;-63
2022/06/15 00:17:19;;;;;;;19.20;8.77;;;;;;;14.48;88.56;100791.91;8361734;28;20516;-63
2022/06/15 00:21:20;;;;;;;17.57;9.20;;;;;;;14.46;88.72;100793.94;8369523;28;20312;-63
2022/06/15 00:25:21;;;;;;;15.60;8.30;;;;;;;14.45;89.21;100792.22;8387291;28;20274;-63
2022/06/15 00:29:21;;;;;;;14.98;8.90;;;;;;;14.63;88.00;100794.88;8376250;28;20235;-63
2022/06/15 00:33:23;;;;;;;17.83;8.68;;;;;;;14.49;89.01;100787.31;8358134;28;20135;-63
2022/06/15 00:37:23;;;;;;;15.93;8.40;;;;;;;14.42;89.63;100786.25;8355088;28;20040;-63
2022/06/15 00:41:28;;;;;;;19.25;8.82;;;;;;;14.34;89.39;100787.06;8356843;28;20110;-63
2022/06/15 00:45:29;;;;;;;14.52;8.60;;;;;;;14.12;91.29;100773.88;8353570;28;20091;-63
2022/06/15 00:53:44;;;;;;;16.23;9.73;;;;;;;13.26;97.49;100773.69;8414486;27;20394;-63
2022/06/15 00:57:45;;;;;;;20.48;9.70;;;;;;;13.20;97.19;100760.69;8411850;28;20638;-63
2022/06/15 01:01:47;;;;;;;20.77;10.20;;;;;;;13.48;95.44;100754.28;8411678;28;20033;-63
2022/06/15 01:06:12;;;;;;;19.10;9.05;;;;;;;13.71;94.32;100763.66;8399749;28;20047;-63
2022/06/15 01:10:28;;;;;;;11.55;8.95;;;;;;;13.15;98.04;100765.75;8379056;28;20061;-63
2022/06/15 01:14:48;;;;;;;17.55;9.55;;;;;;;13.18;99.14;100760.03;8385259;28;20488;-63
2022/06/15 01:23:37;;;;;;;19.05;9.90;;;;;;;13.25;98.12;100763.84;8342302;28;20396;-63
2022/06/15 01:28:18;;;;;;;16.17;9.57;;;;;;;13.19;97.98;100761.72;8315665;28;20073;-63
2022/06/15 01:32:29;;;;;;;16.10;9.88;;;;;;;12.93;100.00;100760.69;8291799;28;20609;-63
2022/06/15 01:37:06;;;;;;;25.15;11.48;;;;;;;13.00;100.00;100761.81;8326297;28;20124;-63
2022/06/15 01:41:42;;;;;;;16.38;9.82;;;;;;;13.02;99.99;100757.13;8345809;28;20041;-63
2022/06/15 01:45:46;;;;;;;20.98;11.70;;;;;;;12.83;100.00;100754.44;8309480;28;20472;-63
2022/06/15 01:50:10;;;;;;;20.53;10.60;;;;;;;12.69;100.00;100747.63;8321789;28;20095;-63
2022/06/15 01:54:16;;;;;;;14.88;11.75;;;;;;;12.42;100.00;100750.31;8314759;28;20055;-63
2022/06/15 01:58:22;;;;;;;24.55;11.15;;;;;;;12.40;100.00;100746.00;8312963;28;20053;-63
2022/06/15 02:03:02;;;;;;;21.48;11.75;;;;;;;12.42;100.00;100749.44;8313273;28;20184;-63
2022/06/15 02:11:40;;;;;;;18.20;11.95;;;;;;;12.52;100.00;100734.00;8407461;27;20396;-62
2022/06/15 02:15:45;;;;;;;19.92;11.57;;;;;;;12.61;100.00;100738.53;8379777;28;20033;-62
2022/06/15 02:19:49;;;;;;;19.45;11.90;;;;;;;12.76;100.00;100739.75;8365783;28;20441;-62
2022/06/15 02:23:55;;;;;;;15.90;10.75;;;;;;;12.52;100.00;100740.28;8380110;28;20460;-62
2022/06/15 02:27:56;;;;;;;17.13;10.57;;;;;;;12.42;100.00;100744.88;8379737;28;20063;-62
2022/06/15 02:31:57;;;;;;;14.93;10.77;;;;;;;12.48;100.00;100748.84;8377967;28;20119;-62
2022/06/15 02:35:59;;;;;;;18.55;10.45;;;;;;;12.10;100.00;100744.34;8379274;28;20117;-62
2022/06/15 02:39:59;;;;;;;20.15;11.40;;;;;;;11.72;100.00;100739.81;8379736;28;20064;-62
2022/06/15 02:44:03;;;;;;;22.13;12.43;;;;;;;12.10;100.00;100738.09;8395346;28;20044;-63
2022/06/15 02:48:06;;;;;;;16.03;10.63;;;;;;;11.97;100.00;100737.53;8386912;28;20287;-62
2022/06/15 02:52:11;;;;;;;16.92;11.60;;;;;;;12.05;100.00;100729.53;8389486;28;20052;-62
2022/06/15 02:56:12;;;;;;;;;;;;;;;12.13;100.00;100732.41;8411957;28;20493;-62
2022/06/15 03:00:13;;;;;;;19.17;12.98;;;;;;;12.16;100.00;100729.38;8411502;28;19916;-62
2022/06/15 03:04:14;;;;;;;21.23;12.77;;;;;;;12.20;100.00;100728.09;8411340;28;20040;-62
2022/06/15 03:08:15;;;;;;;21.95;12.85;;;;;;;12.22;100.00;100720.66;8372666;28;20049;-62
2022/06/15 03:12:15;;;;;;;17.48;11.50;;;;;;;11.93;100.00;100723.44;8380263;28;20043;-63
2022/06/15 03:16:15;;;;;;;22.17;11.60;;;;;;;11.51;100.00;100724.69;8377134;28;20041;-63
2022/06/15 03:20:16;;;;;;;20.08;12.65;;;;;;;11.51;100.00;100722.84;8377582;28;20279;-63
2022/06/15 03:24:16;;;;;;;22.17;14.05;;;;;;;11.74;100.00;100731.53;8356521;28;20056;-63
2022/06/15 03:28:17;;;;;;;22.05;14.00;;;;;;;11.78;100.00;100733.00;8356112;28;20478;-63
2022/06/15 03:32:17;;;;;;;24.10;13.13;;;;;;;11.71;100.00;100731.84;8354605;28;20041;-63
2022/06/15 03:36:18;;;;;;;19.42;13.05;;;;;;;11.70;100.00;100731.00;8355967;28;20041;-63
2022/06/15 03:40:18;;;;;;;30.02;14.82;;;;;;;11.83;100.00;100727.97;8356125;28;20041;-63
2022/06/15 03:44:18;;;;;;;23.13;14.23;;;;;;;11.93;100.00;100729.69;8356466;28;20156;-63
2022/06/15 03:48:19;;;;;;;19.75;13.10;;;;;;;12.03;100.00;100726.97;8355494;28;20497;-63
2022/06/15 03:52:23;;;;;;;19.80;12.38;;;;;;;11.74;100.00;100721.56;8366307;28;20455;-63
2022/06/15 03:56:38;;;;;;;20.83;11.63;;;;;;;11.74;100.00;100729.69;8337419;28;20040;-63
2022/06/15 04:00:38;;;;;;;22.80;13.07;;;;;;;12.14;100.00;100736.81;8352964;28;20325;-63
2022/06/15 04:04:39;;;;;;;23.65;12.18;;;;;;;12.32;100.00;100740.47;8367542;28;20521;-63
2022/06/15 04:08:40;;;;;;;25.40;12.15;;;;;;;12.27;100.00;100734.63;8354822;28;20448;-63
2022/06/15 04:12:44;;;;;;;18.88;12.48;;;;;;;12.38;100.00;100731.75;8368564;28;20033;-63
2022/06/15 04:16:46;;;;;;;17.42;12.70;;;;;;;12.63;99.14;100731.09;8334547;28;20044;-63
2022/06/15 04:20:47;;;;;;;18.40;12.23;;;;;;;12.84;98.70;100735.28;8362122;28;20044;-63
2022/06/15 04:24:47;;;;;;;20.42;12.43;;;;;;;12.88;98.38;100741.28;8355648;28;20131;-63
2022/06/15 04:28:47;;;;;;;18.75;12.73;;;;;;;13.11;99.50;100745.31;8377809;28;20436;-63
2022/06/15 04:32:48;;;;;;;16.10;12.10;;;;;;;13.12;97.06;100741.63;8386363;28;20074;-63
2022/06/15 04:36:48;;;;;;;20.67;12.55;;;;;;;13.27;97.07;100740.94;8386880;28;20325;-63
2022/06/15 04:40:49;;;;;;;16.60;12.10;;;;;;;13.49;96.15;100745.09;8349246;28;20055;-63
2022/06/15 04:44:50;;;;;;;16.83;10.77;;;;;;;13.83;93.40;100743.41;8376900;28;20035;-63
2022/06/15 04:48:50;;;;;;;19.58;11.75;;;;;;;13.86;93.21;100745.81;8359171;28;20049;-63
2022/06/15 04:52:51;;;;;;;17.17;11.52;;;;;;;14.09;93.96;100747.00;8370476;28;20044;-63
2022/06/15 04:56:51;;;;;;;18.13;11.00;;;;;;;14.31;92.21;100746.56;8362208;28;20124;-63
2022/06/15 05:00:51;;;;;;;22.35;12.57;;;;;;;14.32;95.15;100748.25;8350063;28;20545;-63
2022/06/15 05:04:53;;;;;;;14.20;10.55;;;;;;;14.71;93.25;100749.56;8360430;28;20345;-63
2022/06/15 05:08:54;;;;;;;25.48;11.52;;;;;;;14.80;89.29;100753.16;8384994;28;20044;-63
2022/06/15 05:12:54;;;;;;;20.63;12.20;;;;;;;14.86;89.01;100764.28;8359219;28;20042;-63
2022/06/15 05:16:55;;;;;;;12.68;10.77;;;;;;;15.02;88.05;100761.63;8366469;28;20044;-63
2022/06/15 05:20:55;;;;;;;17.23;11.10;;;;;;;15.41;87.91;100754.63;8365731;28;20036;-63
2022/06/15 05:24:56;;;;;;;19.90;11.25;;;;;;;15.66;88.71;100755.56;8383459;28;20329;-63
2022/06/15 05:28:56;;;;;;;20.97;11.27;;;;;;;15.78;87.01;100756.94;8361425;28;20044;-63
2022/06/15 05:32:56;;;;;;;17.60;11.32;;;;;;;15.78;86.83;100751.50;8333293;28;20691;-63
2022/06/15 05:36:57;;;;;;;20.67;11.30;;;;;;;16.19;84.79;100757.84;8369377;28;20036;-63
2022/06/15 05:40:57;;;;;;;19.90;11.18;;;;;;;16.26;83.21;100767.91;8363889;28;20280;-63
2022/06/15 05:44:57;;;;;;;19.83;12.47;;;;;;;16.42;83.41;100756.09;8359157;28;20110;-63
2022/06/15 05:49:00;;;;;;;18.27;10.75;;;;;;;16.75;82.86;100761.38;8350499;28;20299;-63
2022/06/15 05:53:00;;;;;;;17.17;11.32;;;;;;;17.17;84.40;100763.81;8349025;28;20044;-63
2022/06/15 05:57:00;;;;;;;17.53;10.37;;;;;;;17.27;81.83;100759.81;8359454;28;20506;-63
2022/06/15 06:01:24;;;;;;;24.23;10.83;;;;;;;17.51;79.79;100767.09;8361807;28;20343;-63
2022/06/15 06:05:24;;;;;;;14.10;9.83;;;;;;;17.76;79.92;100771.41;8347291;28;20889;-63
2022/06/15 06:09:24;;;;;;;27.10;10.77;;;;;;;17.78;79.83;100758.38;8356207;28;20386;-63
2022/06/15 06:13:25;;;;;;;16.55;10.07;;;;;;;17.98;79.91;100759.59;8355195;28;20095;-63
2022/06/15 06:17:25;;;;;;;18.45;10.15;;;;;;;18.09;80.58;100756.47;8353139;28;20039;-63
2022/06/15 06:21:26;;;;;;;22.45;10.75;;;;;;;18.34;80.68;100759.84;8356630;28;20033;-63
2022/06/15 06:25:26;;;;;;;19.23;10.85;;;;;;;18.48;79.09;100754.41;8358289;28;20132;-63
2022/06/15 06:29:28;;;;;;;25.23;10.95;;;;;;;18.78;80.17;100756.16;8356376;28;20037;-63
2022/06/15 06:33:31;;;;;;;22.13;11.23;;;;;;;18.89;77.29;100750.25;8324044;28;20037;-63
2022/06/15 06:37:34;;;;;;;22.50;11.25;;;;;;;19.09;75.76;100751.34;8355051;28;20044;-63
2022/06/15 06:41:35;;;;;;;22.02;11.50;;;;;;;19.36;75.10;100764.41;8364975;28;20141;-63
2022/06/15 06:45:35;;;;;;;21.33;10.82;;;;;;;19.45;74.50;100768.75;8355794;28;20037;-63
2022/06/15 06:49:36;;;;;;;14.27;10.23;;;;;;;20.09;73.59;100766.09;8353578;28;20413;-63
2022/06/15 06:53:37;;;;;;;24.73;10.82;;;;;;;20.10;72.67;100767.81;8327111;28;20047;-63
2022/06/15 06:57:37;;;;;;;19.17;11.93;;;;;;;20.38;71.81;100776.97;8325751;28;20463;-63
2022/06/15 07:01:41;;;;;;;23.27;12.13;;;;;;;20.51;72.16;100779.84;8329845;28;20038;-63
2022/06/15 07:05:41;;;;;;;18.90;10.70;;;;;;;20.67;71.42;100785.03;8330818;28;20288;-63
2022/06/15 07:09:42;;;;;;;22.45;11.75;;;;;;;20.68;71.72;100778.53;8332186;28;20036;-63
2022/06/15 07:13:44;;;;;;;16.60;11.55;;;;;;;20.79;72.16;100781.56;8316828;28;20087;-63
2022/06/15 07:17:44;;;;;;;22.58;9.45;;;;;;;21.44;70.91;100780.31;8333124;28;20041;-64
2022/06/15 07:21:45;;;;;;;16.03;8.93;;;;;;;21.37;69.29;100774.75;8336789;28;20052;-64
2022/06/15 07:25:45;;;;;;;18.65;8.63;;;;;;;21.43;67.94;100779.44;8323061;28;20276;-64
2022/06/15 07:29:46;;;;;;;17.77;7.17;;;;;;;21.43;69.09;100782.19;8324149;28;20040;-64
2022/06/15 07:33:47;;;;;;;15.27;7.25;;;;;;;21.81;67.97;100771.59;8333577;28;20271;-64
2022/06/15 07:37:49;;;;;;;13.80;7.25;;;;;;;22.01;68.08;100776.09;8341591;28;20048;-64
2022/06/15 07:41:49;;;;;;;15.68;6.85;;;;;;;21.94;66.63;100772.47;8324158;28;20083;-64
2022/06/15 07:45:50;;;;;;;12.63;6.22;;;;;;;22.41;65.83;100768.72;8317869;28;20509;-64
2022/06/15 07:49:57;;;;;;;14.32;6.95;;;;;;;22.66;64.56;100773.44;8347515;28;20060;-64
2022/06/15 07:53:59;;;;;;;15.88;6.30;;;;;;;22.53;65.08;100780.84;8313050;28;20045;-64
2022/06/15 07:58:00;;;;;;;10.90;5.75;;;;;;;22.78;63.84;100771.72;8353430;28;20049;-64
2022/06/15 08:02:01;;;;;;;13.98;5.50;;;;;;;23.32;62.43;100774.22;8355135;28;20033;-64
2022/06/15 08:06:01;;;;;;;13.82;5.28;;;;;;;23.66;64.65;100768.34;8350057;28;20037;-64
2022/06/15 08:10:02;;;;;;;8.45;4.53;;;;;;;23.64;63.54;100761.34;8319879;28;20106;-64
2022/06/15 08:14:03;;;;;;;10.52;4.70;;;;;;;23.78;64.98;100766.59;8305856;28;20049;-63
2022/06/15 08:18:10;;;;;;;6.22;3.80;;;;;;;23.72;60.03;100763.88;8316809;28;20477;-63
2022/06/15 08:22:11;;;;;;;10.05;4.15;;;;;;;23.47;61.08;100762.91;8326565;28;20497;-63
2022/06/15 08:26:17;;;;;;;7.22;3.20;;;;;;;24.29;58.96;100761.00;8316300;28;20041;-63
2022/06/15 08:30:18;;;;;;;5.85;2.80;;;;;;;24.42;57.55;100763.66;8320913;28;20457;-63
2022/06/15 08:34:18;;;;;;;7.05;2.80;;;;;;;24.56;57.00;100768.88;8314618;28;20115;-63
2022/06/15 08:38:22;;;;;;;7.00;2.70;;;;;;;24.54;58.36;100772.94;8314738;28;20092;-63
2022/06/15 08:51:27;;;;;;;5.70;2.50;;;;;;;24.44;56.47;100769.81;8400704;27;20357;-62
2022/06/15 08:55:36;;;;;;;9.30;2.90;;;;;;;24.82;56.92;100771.44;8349030;28;20502;-63
2022/06/15 08:59:48;;;;;;;4.30;2.83;;;;;;;25.50;58.19;100772.25;8345438;28;20581;-63
2022/06/15 09:04:00;;;;;;;9.88;3.28;;;;;;;25.17;59.77;100760.66;8359198;28;20644;-63
2022/06/15 09:08:11;;;;;;;8.30;3.50;;;;;;;25.48;57.30;100765.22;8350375;28;20565;-63
2022/06/15 09:16:59;;;;;;;6.47;2.65;;;;;;;25.85;56.34;100770.50;8283489;28;20407;-62
2022/06/15 09:21:14;;;;;;;5.80;2.70;;;;;;;25.61;53.44;100760.38;8288464;28;20041;-62
2022/06/15 09:25:26;;;;;;;8.98;2.90;;;;;;;26.21;54.24;100758.50;8284287;28;20375;-63
2022/06/15 09:29:36;;;;;;;7.15;2.78;;;;;;;26.15;53.62;100765.84;8303774;28;20048;-63
2022/06/15 09:33:43;;;;;;;4.60;2.42;;;;;;;26.22;52.18;100766.59;8281042;28;20069;-63
2022/06/15 09:37:49;;;;;;;6.10;2.08;;;;;;;26.26;51.85;100762.25;8304574;28;20513;-63
2022/06/15 09:42:29;;;;;;;7.38;2.28;;;;;;;26.16;51.17;100761.13;8302582;28;20453;-63
2022/06/15 09:46:52;;;;;;;7.20;2.30;;;;;;;26.47;51.09;100756.16;8305681;28;20109;-63
2022/06/15 09:51:15;;;;;;;7.35;2.28;;;;;;;26.47;50.24;100745.06;8306397;28;20160;-63
2022/06/15 09:55:27;;;;;;;;;;;;;;;26.46;52.43;100754.47;8303791;28;20413;-63
2022/06/15 09:59:33;;;;;;;4.85;2.25;;;;;;;27.32;49.09;100749.13;8301614;28;20257;-63
2022/06/15 10:03:38;;;;;;;9.82;2.17;;;;;;;28.95;47.59;100752.84;8305927;28;20426;-63
2022/06/15 10:07:43;;;;;;;5.72;1.90;;;;;;;30.04;45.95;100745.16;8301397;28;20029;-63
2022/06/15 10:11:48;;;;;;;7.50;1.90;;;;;;;31.26;44.34;100756.34;8300924;28;20034;-63
2022/06/15 10:15:57;;;;;;;4.97;1.98;;;;;;;32.20;41.47;100752.34;8302596;28;20053;-63
2022/06/15 10:19:59;;;;;;;5.18;2.05;;;;;;;32.69;41.33;100750.69;8304683;28;20045;-63
2022/06/15 10:24:36;;;;;;;7.18;2.10;;;;;;;32.72;42.02;100747.34;8300409;28;20103;-63
2022/06/15 10:28:40;;;;;;;7.72;2.08;;;;;;;33.10;39.41;100744.00;8277225;28;20042;-63
2022/06/15 10:33:03;;;;;;;5.70;2.10;;;;;;;34.45;38.74;100741.78;8277421;28;20061;-63
2022/06/15 10:37:08;;;;;;;2.53;1.50;;;;;;;35.99;38.11;100738.50;8283286;28;20050;-63
2022/06/15 10:42:08;;;;;;;6.63;1.67;;;;;;;35.02;36.74;100739.03;8284571;28;20045;-63
2022/06/15 10:45:34;;;;;;;4.90;1.90;;;;;;;33.82;38.18;100735.91;8282654;28;20045;-63
2022/06/15 10:49:42;;;;;;;4.15;1.92;;;;;;;34.00;38.69;100744.84;8283087;28;20037;-63
2022/06/15 10:53:54;;;;;;;5.88;2.22;;;;;;;34.65;37.26;100724.75;8283235;28;20044;-63
2022/06/15 11:02:33;;;;;;;4.72;1.80;;;;;;;33.31;38.42;100728.81;8279003;28;20095;-63
2022/06/15 11:06:44;;;;;;;5.38;2.33;;;;;;;34.36;37.54;100715.41;8280336;28;20038;-63
2022/06/15 11:10:48;;;;;;;3.50;1.60;;;;;;;35.37;36.59;100710.59;8280457;28;20494;-63
2022/06/15 11:14:57;;;;;;;4.30;1.50;;;;;;;35.53;35.38;100709.25;8273513;28;20049;-63
2022/06/15 11:19:03;;;;;;;6.53;2.05;;;;;;;34.98;35.89;100712.66;8280065;28;20053;-63
2022/06/15 11:23:28;;;;;;;5.25;1.70;;;;;;;34.82;38.21;100708.31;8275887;28;20522;-63
2022/06/15 11:27:36;;;;;;;6.28;1.60;;;;;;;35.76;34.84;100697.13;8245805;28;20053;-63
2022/06/15 11:31:38;;;;;;;5.03;2.15;;;;;;;35.81;35.70;100699.91;8248081;28;20584;-63
2022/06/15 11:35:47;;;;;;;3.60;1.67;;;;;;;36.32;36.06;100700.00;8276762;28;20499;-63
2022/06/15 11:39:55;;;;;;;2.85;1.85;;;;;;;35.70;36.90;100690.72;8284670;28;20056;-63
2022/06/15 11:43:57;;;;;;;5.43;2.15;;;;;;;36.94;34.55;100694.72;8285523;28;20041;-63
2022/06/15 11:48:19;;;;;;;3.47;1.42;;;;;;;36.98;36.68;100692.94;8282622;28;20167;-63
2022/06/15 11:52:43;;;;;;;3.33;1.40;;;;;;;37.14;35.52;100691.50;8252077;28;20118;-63
2022/06/15 11:57:23;;;;;;;6.47;1.40;;;;;;;34.98;35.21;100684.56;8270561;28;20061;-63
2022/06/15 12:01:48;;;;;;;5.35;1.92;;;;;;;35.28;36.30;100684.22;8281919;28;20038;-63
2022/06/15 12:06:00;;;;;;;4.70;1.58;;;;;;;35.47;36.20;100687.94;8282896;28;20060;-63
2022/06/15 12:10:08;;;;;;;7.38;1.83;;;;;;;34.66;35.70;100687.06;8277426;28;20068;-63
2022/06/15 12:14:32;;;;;;;4.88;1.58;;;;;;;31.33;39.91;100685.16;8284807;28;20054;-63
2022/06/15 12:22:58;;;;;;;6.13;2.13;;;;;;;29.19;42.81;100668.88;8372370;27;20395;-63
2022/06/15 12:27:10;;;;;;;5.93;2.15;;;;;;;28.57;42.57;100667.34;8362103;28;20048;-63
2022/06/15 12:36:02;;;;;;;3.53;1.83;;;;;;;28.90;46.81;100650.59;8324240;27;20384;-63
2022/06/15 12:44:48;;;;;;;5.82;1.70;;;;;;;28.69;44.97;100637.47;8388596;27;20447;-63
2022/06/15 12:49:21;;;;;;;5.63;1.52;;;;;;;28.45;43.73;100641.53;8377966;28;20071;-65
2022/06/15 12:53:41;;;;;;;3.45;1.55;;;;;;;28.19;43.81;100642.22;8372406;28;20490;-64
2022/06/15 13:02:25;;;;;;;4.38;1.70;;;;;;;28.28;46.75;100651.81;8287566;28;20770;-63
2022/06/15 13:06:37;;;;;;;4.18;1.73;;;;;;;28.97;45.05;100645.66;8277825;28;20042;-63
2022/06/15 13:11:00;;;;;;;5.93;1.80;;;;;;;28.73;44.95;100644.22;8236334;28;20487;-63
2022/06/15 13:15:00;;;;;;;4.93;1.75;;;;;;;28.58;44.13;100641.22;8274485;28;20047;-63
2022/06/15 13:19:05;;;;;;;7.03;1.98;;;;;;;28.08;44.20;100648.69;8255405;28;20074;-63
2022/06/15 13:23:34;;;;;;;2.90;1.60;;;;;;;28.34;46.08;100653.59;8277221;28;20038;-63
2022/06/15 13:27:39;;;;;;;4.68;1.60;;;;;;;28.25;44.04;100647.63;8246855;28;20085;-63
2022/06/15 13:31:58;;;;;;;7.28;2.20;;;;;;;28.34;42.46;100639.69;8248539;28;20045;-63
2022/06/15 13:36:21;;;;;;;7.47;1.73;;;;;;;28.27;43.32;100648.19;8250274;28;20172;-63
2022/06/15 13:40:21;;;;;;;5.87;1.87;;;;;;;28.45;42.65;100647.09;8248215;28;20101;-64
2022/06/15 13:44:25;;;;;;;3.65;1.55;;;;;;;28.66;43.52;100643.53;8247659;28;20039;-64
2022/06/15 13:48:39;;;;;;;2.97;1.70;;;;;;;28.76;41.67;100642.88;8247584;28;20031;-64
2022/06/15 13:52:42;;;;;;;4.55;1.50;;;;;;;28.76;42.43;100638.16;8279076;28;20452;-63
2022/06/15 13:57:11;;;;;;;5.30;1.50;;;;;;;28.67;41.98;100644.41;8247189;28;20451;-63
2022/06/15 14:01:52;;;;;;;7.47;1.65;;;;;;;28.60;42.89;100644.56;8279407;28;20381;-63
2022/06/15 14:06:04;;;;;;;7.43;1.58;;;;;;;28.64;40.06;100645.75;8278563;28;20046;-64
2022/06/15 14:10:38;;;;;;;4.15;1.65;;;;;;;28.49;41.20;100642.75;8275110;28;20491;-63
2022/06/15 14:15:18;;;;;;;4.78;1.55;;;;;;;28.19;44.44;100633.84;8257421;28;20053;-63
2022/06/15 14:19:39;;;;;;;6.18;1.90;;;;;;;28.12;42.67;100631.25;8255926;28;20198;-63
2022/06/15 14:23:40;;;;;;;6.07;2.50;;;;;;;28.53;45.53;100632.78;8248431;28;20038;-63
2022/06/15 14:27:41;;;;;;;6.35;1.90;;;;;;;28.61;43.86;100626.78;8256293;28;20567;-63
2022/06/15 14:31:45;;;;;;;5.38;1.60;;;;;;;28.66;45.18;100621.28;8256866;28;20189;-63
2022/06/15 14:36:10;;;;;;;5.70;1.98;;;;;;;28.68;43.96;100627.44;8256692;28;20203;-63
2022/06/15 14:40:27;;;;;;;6.40;1.70;;;;;;;28.61;43.25;100635.13;8256224;28;20049;-63
2022/06/15 14:44:29;;;;;;;6.03;1.90;;;;;;;28.64;42.99;100624.31;8264217;28;20050;-63
2022/06/15 14:48:34;;;;;;;3.92;1.83;;;;;;;28.63;44.53;100632.91;8259468;28;20039;-64
2022/06/15 14:52:36;;;;;;;5.30;1.73;;;;;;;28.76;43.33;100618.66;8252730;28;20038;-64
2022/06/15 15:01:10;;;;;;;4.53;1.75;;;;;;;28.67;42.35;100616.56;8388866;27;20752;-62
2022/06/15 15:05:11;;;;;;;4.25;1.88;;;;;;;28.80;43.23;100617.03;8377882;28;20536;-63
2022/06/15 15:09:12;;;;;;;4.95;1.75;;;;;;;28.48;42.05;100614.06;8377191;28;20095;-63
2022/06/15 15:13:24;;;;;;;7.93;1.50;;;;;;;28.69;41.29;100615.19;8358167;28;20059;-63
2022/06/15 15:17:25;;;;;;;5.85;1.40;;;;;;;28.67;40.55;100614.63;8376917;28;20037;-63
2022/06/15 15:21:32;;;;;;;7.57;2.30;;;;;;;28.53;43.70;100616.94;8358625;28;20576;-63
2022/06/15 15:25:42;;;;;;;5.97;1.90;;;;;;;28.48;45.51;100613.22;8347156;28;20321;-64
2022/06/15 15:38:43;;;;;;;5.90;1.60;;;;;;;28.74;44.49;100608.88;8392443;27;20389;-63
2022/06/15 15:42:44;;;;;;;6.23;2.07;;;;;;;28.63;43.63;100620.97;8399295;28;20515;-63
2022/06/15 15:46:44;;;;;;;5.75;2.30;;;;;;;28.57;44.11;100617.25;8403279;28;20357;-63
2022/06/15 15:50:45;;;;;;;5.78;2.30;;;;;;;28.62;45.01;100609.00;8402083;28;20035;-63
2022/06/15 15:54:46;;;;;;;6.03;2.28;;;;;;;28.53;44.62;100610.53;8396575;28;20076;-63
2022/06/15 15:58:48;;;;;;;5.25;1.88;;;;;;;28.75;45.29;100603.03;8389263;28;20037;-64
2022/06/15 16:02:53;;;;;;;3.85;1.83;;;;;;;28.94;44.05;100607.19;8388891;28;20052;-64
2022/06/15 16:06:54;;;;;;;6.65;1.65;;;;;;;28.74;43.12;100609.72;8379768;28;20486;-64
2022/06/15 16:10:55;;;;;;;10.82;3.80;;;;;;;28.45;44.27;100602.59;8376201;28;20396;-64
2022/06/15 16:14:55;;;;;;;9.82;6.55;;;;;;;28.24;44.30;100611.72;8404251;28;20433;-63
2022/06/15 16:18:56;;;;;;;24.55;16.67;;;;;;;28.12;44.30;100613.72;8410156;28;20028;-64
2022/06/15 16:22:58;;;;;;;5.30;1.77;;;;;;;28.16;44.66;100604.63;8383744;28;20046;-63
2022/06/15 16:26:59;;;;;;;6.70;1.88;;;;;;;28.26;45.30;100596.44;8390489;28;20055;-63
2022/06/15 16:31:04;;;;;;;3.97;1.58;;;;;;;28.22;46.06;100597.19;8384273;28;20044;-63
2022/06/15 16:35:05;;;;;;;3.78;1.42;;;;;;;28.22;44.01;100588.84;8377159;28;20039;-64
2022/06/15 16:39:06;;;;;;;5.43;1.48;;;;;;;28.26;44.71;100582.53;8377265;28;20541;-64
2022/06/15 16:43:07;;;;;;;4.38;1.88;;;;;;;28.32;44.32;100583.44;8383087;28;20119;-64
2022/06/15 16:47:09;;;;;;;4.47;1.23;;;;;;;28.21;45.30;100584.41;8378475;28;20056;-64
2022/06/15 16:51:12;;;;;;;3.33;1.40;;;;;;;28.22;43.91;100588.84;8369298;28;20036;-64
2022/06/15 16:55:19;;;;;;;5.00;1.60;;;;;;;28.19;43.85;100583.81;8354165;28;20452;-64
2022/06/15 16:59:25;;;;;;;4.03;2.00;;;;;;;28.12;44.52;100577.59;8358369;28;20044;-64
2022/06/15 17:03:26;;;;;;;5.15;1.77;;;;;;;28.06;44.33;100592.50;8359715;28;20036;-64
2022/06/15 17:07:27;;;;;;;3.50;1.88;;;;;;;28.10;44.43;100576.97;8367212;28;20094;-64
2022/06/15 17:11:28;;;;;;;5.30;2.07;;;;;;;27.94;43.86;100580.59;8350968;28;20529;-64
2022/06/15 17:15:29;;;;;;;5.47;1.88;;;;;;;27.95;44.37;100582.28;8361285;28;20287;-64
2022/06/15 17:19:30;;;;;;;5.95;2.20;;;;;;;27.98;44.26;100573.44;8357927;28;20029;-64
2022/06/15 17:23:35;;;;;;;6.88;2.10;;;;;;;27.81;44.31;100575.34;8357174;28;20060;-64
2022/06/15 17:27:35;;;;;;;3.58;1.50;;;;;;;27.73;44.55;100576.59;8364931;28;20055;-64
2022/06/15 17:31:40;;;;;;;4.60;1.92;;;;;;;27.73;45.45;100581.31;8342349;28;20045;-64
2022/06/15 17:35:41;;;;;;;6.85;2.67;;;;;;;27.61;46.18;100583.31;8342857;28;20067;-64
2022/06/15 17:39:41;;;;;;;4.90;2.28;;;;;;;27.52;46.62;100579.25;8341905;28;20780;-64
2022/06/15 17:43:42;;;;;;;6.30;2.45;;;;;;;27.49;47.51;100580.59;8340126;28;20197;-64
2022/06/15 17:47:42;;;;;;;6.53;2.25;;;;;;;27.31;47.39;100593.84;8336988;28;20049;-64
2022/06/15 17:51:44;;;;;;;8.05;2.58;;;;;;;27.22;48.74;100600.84;8341611;28;20351;-64
2022/06/15 17:55:45;;;;;;;5.10;2.08;;;;;;;27.20;48.43;100600.25;8328220;28;20250;-64
2022/06/15 17:59:45;;;;;;;4.80;2.38;;;;;;;27.31;48.14;100591.91;8339862;28;20051;-64
2022/06/15 18:03:45;;;;;;;4.90;2.30;;;;;;;27.28;48.84;100584.06;8337799;28;20123;-64
2022/06/15 18:07:46;;;;;;;6.97;2.20;;;;;;;27.03;50.47;100585.47;8334730;28;20299;-64
2022/06/15 18:11:47;;;;;;;6.00;2.30;;;;;;;26.77;51.49;100593.25;8332416;28;20793;-64
2022/06/15 18:15:47;;;;;;;7.65;2.50;;;;;;;26.55;52.36;100594.94;8330446;28;20076;-64
2022/06/15 18:19:53;;;;;;;6.82;2.65;;;;;;;26.36;53.09;100579.53;8343822;28;20045;-64
2022/06/15 18:23:55;;;;;;;5.43;2.40;;;;;;;26.23;53.81;100585.28;8331151;28;20895;-64
2022/06/15 18:27:55;;;;;;;3.90;2.00;;;;;;;26.16;53.99;100601.19;8331019;28;20489;-65
2022/06/15 18:32:01;;;;;;;7.07;2.58;;;;;;;26.05;53.77;100593.72;8340224;28;20458;-64
2022/06/15 18:36:02;;;;;;;5.47;2.00;;;;;;;26.00;53.68;100601.06;8306244;28;20051;-64
2022/06/15 18:40:04;;;;;;;5.45;2.38;;;;;;;25.93;53.99;100600.31;8335559;28;20281;-64
2022/06/15 18:48:25;;;;;;;3.85;2.10;;;;;;;25.72;55.14;100598.06;8334130;28;20565;-64
2022/06/15 18:52:29;;;;;;;4.70;2.10;;;;;;;25.61;54.98;100601.69;8332849;28;20454;-64
2022/06/15 18:56:30;;;;;;;3.70;2.13;;;;;;;25.57;54.97;100593.00;8335042;28;20456;-64
2022/06/15 19:00:34;;;;;;;3.70;2.08;;;;;;;25.45;55.26;100594.88;8329446;28;20143;-64
2022/06/15 19:04:34;;;;;;;9.50;2.80;;;;;;;25.33;55.63;100596.75;8325571;28;20517;-64
2022/06/15 19:08:38;;;;;;;6.57;2.15;;;;;;;25.18;56.07;100596.28;8330057;28;20033;-64
2022/06/15 19:12:39;;;;;;;8.15;2.45;;;;;;;25.08;55.93;100596.00;8319731;28;20544;-64
2022/06/15 19:16:39;;;;;;;11.35;2.60;;;;;;;24.95;56.35;100593.41;8314318;28;20524;-64
2022/06/15 19:20:41;;;;;;;8.80;2.13;;;;;;;24.90;56.20;100607.09;8332746;28;20029;-64
2022/06/15 19:24:45;;;;;;;11.90;2.55;;;;;;;24.73;56.56;100597.72;8326979;28;21105;-64
2022/06/15 19:28:45;;;;;;;4.90;2.55;;;;;;;24.58;56.84;100600.00;8335907;28;20029;-64
2022/06/15 19:32:51;;;;;;;4.97;1.83;;;;;;;24.36;57.56;100607.00;8313023;28;20130;-64
2022/06/15 19:36:51;;;;;;;7.30;2.03;;;;;;;24.25;58.03;100616.91;8315400;28;20045;-64
2022/06/15 19:40:52;;;;;;;3.38;2.10;;;;;;;24.15;58.52;100621.25;8344149;28;20039;-64
2022/06/15 19:44:54;;;;;;;7.90;2.28;;;;;;;24.07;58.33;100629.81;8345262;28;20489;-64
2022/06/15 19:48:54;;;;;;;5.43;2.15;;;;;;;23.94;58.98;100627.13;8346290;28;20029;-64
2022/06/15 19:52:56;;;;;;;5.10;2.30;;;;;;;23.84;59.12;100621.25;8335423;28;20044;-64
2022/06/15 19:56:57;;;;;;;7.72;2.03;;;;;;;23.71;59.43;100619.44;8346972;28;20068;-64
2022/06/15 20:00:58;;;;;;;3.30;1.92;;;;;;;23.66;59.54;100626.72;8348209;28;20556;-64